| Date | Time | Temp. (oF) | Dew Point (oF) | Rel. Hum. (%) | Press. (in.) | Wind Dir. | Wind Speed (mph) | Hourly Rainfall (in.) |
|
|---|---|---|---|---|---|---|---|---|---|
| 1 | 04/07 | 00:00 | 58 | 44 | 61 | 30.10 | SSW | 4 | 0.00 |
| 2 | 04/06 | 23:00 | 59 | 44 | 59 | 30.10 | S | 7 | 0.00 |
| 3 | 04/06 | 22:00 | 60 | 45 | 58 | 30.11 | S | 6 | 0.00 |
| 4 | 04/06 | 21:00 | 62 | 45 | 55 | 30.10 | S | 11 | 0.00 |
| 5 | 04/06 | 20:00 | 64 | 46 | 53 | 30.08 | S | 8 | 0.00 |
| 6 | 04/06 | 19:00 | 66 | 43 | 45 | 30.07 | S | 10 | 0.00 |
| 7 | 04/06 | 18:00 | 68 | 37 | 33 | 30.05 | S | 9 | 0.00 |
| 8 | 04/06 | 17:00 | 71 | 35 | 28 | 30.06 | S | 10 | 0.00 |
| 9 | 04/06 | 16:00 | 71 | 33 | 25 | 30.07 | S | 16 | 0.00 |
| 10 | 04/06 | 15:00 | 73 | 30 | 21 | 30.10 | S | 4 | 0.00 |
| 11 | 04/06 | 14:00 | 71 | 35 | 28 | 30.14 | SSE | 6 | 0.00 |
| 12 | 04/06 | 13:00 | 68 | 39 | 36 | 30.19 | E | 6 | 0.00 |
| 13 | 04/06 | 12:00 | 63 | 36 | 37 | 30.22 | ESE | 0 | 0.00 |
| 14 | 04/06 | 11:00 | 57 | 30 | 37 | 30.24 | SSW | 4 | 0.00 |
| 15 | 04/06 | 10:00 | 53 | 32 | 46 | 30.25 | ENE | 2 | 0.00 |
| 16 | 04/06 | 09:00 | 45 | 37 | 76 | 30.26 | E | 0 | 0.00 |
| 17 | 04/06 | 08:00 | 37 | 33 | 87 | 30.26 | NE | 0 | 0.00 |
| 18 | 04/06 | 07:00 | 35 | 30 | 85 | 30.25 | NNW | 0 | 0.00 |
| 19 | 04/06 | 06:00 | 35 | 31 | 86 | 30.24 | N | 0 | 0.00 |
| 20 | 04/06 | 05:00 | 38 | 31 | 78 | 30.23 | ENE | 0 | 0.00 |
| 21 | 04/06 | 04:00 | 38 | 29 | 71 | 30.22 | ENE | 0 | 0.00 |
| 22 | 04/06 | 03:00 | 40 | 30 | 69 | 30.20 | S | 0 | 0.00 |
| 23 | 04/06 | 02:00 | 42 | 29 | 61 | 30.21 | SSW | 0 | 0.00 |
| 24 | 04/06 | 01:00 | 46 | 31 | 56 | 30.21 | S | 0 | 0.00 |